Flight Track Log - Related Links

Times and Time Zones

All times are in EDT time to prevent confusion due to time zone crossing. See the SWA1258 flight status page for this flight to view local times or setup timezone preferences in your user account.

Time Position Orientation Groundspeed Altitude Reporting Facility
EDT Latitude Longitude Course Direction KTS MPH feet Rate Location/Type
Sun 02:01:45 PM 42.9167 -71.4167 202° Southwest 143 165 1,000  Level KA90
Sun 02:02:58 PM 42.8833 -71.4667 228° Southwest 196 226 3,700 1,812 Climbing KA90
Sun 02:04:14 PM 42.9403 -71.4700 358° North 211 243 5,500 2,029 Climbing Boston Center
Sun 02:05:14 PM 42.9728 -71.3817 63° Northeast 218 251 8,300 2,750 Climbing Boston Center
Sun 02:06:14 PM 43.0031 -71.2817 67° East 261 300 11,000 2,800 Climbing Boston Center
Sun 02:07:00 PM 42.8590 -70.9358 202° Southwest  Level FlightAware Approximate
Sun 02:07:14 PM 43.0394 -71.1789 64° Northeast 306 352 13,900  Level Boston Center
Sun 02:08:14 PM 43.0756 -71.0503 69° East 323 372 17,800 2,950 Climbing Boston Center
Sun 02:09:14 PM 43.0556 -70.9483 105° East 342 394 19,800 2,550 Climbing Boston Center
Sun 02:10:14 PM 42.9381 -70.9058 165° South 301 346 22,900 2,850 Climbing Boston Center
Sun 02:11:14 PM 42.8347 -70.9536 199° South 313 360 25,500 2,200 Climbing Boston Center
Sun 02:12:14 PM 42.7442 -71.0464 217° Southwest 353 406 27,300 1,600 Climbing Boston Center
Sun 02:13:14 PM 42.6706 -71.1806 233° Southwest 396 456 28,700 1,850 Climbing Boston Center
Sun 02:14:14 PM 42.5928 -71.3206 233° Southwest 431 496 31,000 2,250 Climbing Boston Center
Sun 02:15:14 PM 42.5169 -71.4569 233° Southwest 452 520 33,200 1,500 Climbing Boston Center
Sun 02:16:14 PM 42.4369 -71.5906 231° Southwest 462 532 34,000 400 Climbing Boston Center
Sun 02:17:14 PM 42.3606 -71.7236 232° Southwest 462 532 34,000  Level Boston Center
Sun 02:18:14 PM 42.2842 -71.8592 233° Southwest 462 532 34,000  Level Boston Center
Sun 02:19:14 PM 42.2244 -71.9664 233° Southwest 462 532 34,000  Level Boston Center
Sun 02:20:14 PM 42.1311 -72.1294 232° Southwest 462 532 34,000  Level Boston Center
Sun 02:21:14 PM 42.0544 -72.2639 233° Southwest 462 532 34,000  Level Boston Center
Sun 02:22:14 PM 41.9772 -72.3983 232° Southwest 462 532 34,000  Level Boston Center
Sun 02:23:14 PM 41.9003 -72.5350 233° Southwest 462 532 34,000  Level Boston Center
Sun 02:24:14 PM 41.8292 -72.6519 231° Southwest 462 532 34,000  Level Boston Center
Sun 02:25:14 PM 41.7411 -72.8044 232° Southwest 470 541 34,000  Level Boston Center
Sun 02:26:14 PM 41.6614 -72.9403 232° Southwest 470 541 34,000  Level Boston Center
Sun 02:27:14 PM 41.5836 -73.0756 232° Southwest 470 541 34,000  Level Boston Center
Sun 02:28:14 PM 41.5311 -73.1667 232° Southwest 470 541 34,000  Level Boston Center
Sun 02:30:07 PM 41.3625 -73.4469 231° Southwest 465 535 34,000  Level New York Center
Sun 02:31:08 PM 41.2844 -73.5792 232° Southwest 465 535 34,000  Level New York Center
Sun 02:32:05 PM 41.2061 -73.7136 232° Southwest 460 529 34,000  Level New York Center
Sun 02:33:06 PM 41.1258 -73.8453 231° Southwest 460 529 34,000  Level New York Center
Sun 02:34:06 PM 41.0514 -73.9739 233° Southwest 460 529 34,000 -545 Level New York Center
Sun 02:35:07 PM 40.9728 -74.1047 232° Southwest 460 529 32,900 -1,600 Descending New York Center
Sun 02:36:06 PM 40.8967 -74.2164 228° Southwest 462 532 30,800 -2,100 Descending New York Center
Sun 02:37:07 PM 40.8222 -74.3442 232° Southwest 462 532 28,700 -1,412 Descending New York Center
Sun 02:38:05 PM 40.7497 -74.4664 232° Southwest 451 519 28,000 -353 Descending New York Center
Sun 02:39:06 PM 40.6725 -74.5961 232° Southwest 451 519 28,000  Level New York Center
Sun 02:40:07 PM 40.5933 -74.7256 231° Southwest 456 525 28,000  Level New York Center
Sun 02:41:07 PM 40.5058 -74.8489 227° Southwest 461 531 28,000  Level New York Center
Sun 02:42:05 PM 40.4200 -74.9719 228° Southwest 466 536 28,000 -908 Level New York Center
Sun 02:43:06 PM 40.3344 -75.0947 228° Southwest 471 542 26,200 -2,050 Descending New York Center
Sun 02:44:05 PM 40.2508 -75.2147 228° Southwest 465 535 23,900 -2,218 Descending New York Center
Sun 02:45:05 PM 40.1694 -75.3261 226° Southwest 447 514 21,800 -2,132 Descending New York Center
Sun 02:46:06 PM 40.0944 -75.4325 227° Southwest 425 489 19,600 -1,884 Descending New York Center
Sun 02:47:06 PM 40.0086 -75.5433 225° Southwest 399 459 18,000 -800 Descending New York Center
Sun 02:48:06 PM 39.9444 -75.6336 227° Southwest 382 440 18,000  Level New York Center
Sun 02:49:07 PM 39.8772 -75.7481 233° Southwest 376 433 18,000 -793 Level New York Center
Sun 02:50:07 PM 39.8250 -75.8472 236° Southwest 371 427 16,400 -1,714 Descending New York Center
Sun 02:52:37 PM 39.6833 -76.1167 236° Southwest 323 372 12,000 -1,507 Descending Potomac TRACON
Sun 02:53:38 PM 39.6500 -76.2167 247° West 307 353 11,100 -1,138 Descending Potomac TRACON
Sun 02:54:33 PM 39.6167 -76.3167 247° West 298 343 9,800 -1,461 Descending Potomac TRACON
Sun 02:55:33 PM 39.6000 -76.4167 258° West 299 344 8,300 -1,050 Descending Potomac TRACON
Sun 02:56:33 PM 39.5667 -76.5167 247° West 288 331 7,700 -1,041 Descending Potomac TRACON
Sun 02:57:34 PM 39.5333 -76.6000 243° Southwest 285 328 6,200 -1,488 Descending Potomac TRACON
Sun 02:58:34 PM 39.5000 -76.6833 243° Southwest 281 323 4,700 -1,000 Descending Potomac TRACON
Sun 02:59:40 PM 39.4333 -76.7333 210° Southwest 238 274 4,100 -350 Descending Potomac TRACON
Sun 03:00:34 PM 39.3833 -76.7500 194° South 217 250 4,000 -526 Descending Potomac TRACON
Sun 03:01:34 PM 39.3167 -76.7667 191° South 205 236 3,100 -900 Descending Potomac TRACON
Sun 03:02:34 PM 39.2667 -76.7667 180° South 185 213 2,200 -800 Descending Potomac TRACON
Sun 03:03:34 PM 39.2167 -76.7833 194° South 179 206 1,500 -524 Descending Potomac TRACON
Sun 03:04:40 PM 39.1833 -76.7500 142° Southeast 179 206 1,100 -524 Descending Potomac TRACON
Sun 03:05:40 PM 39.1833 -76.7000 90° East 125 144 400 -700 Descending Potomac TRACON
Sun 03:07:00 PM 39.1667 -76.6667 270° West  Level FlightAware Approximate
Sun 03:14:00 PM 39.1754 -76.6683 270° West  Level Estimated
Sun 03:15:00 PM 39.1754 -76.6683 270° West  Level Estimated
Sun 03:16:00 PM 39.1754 -76.6683 270° West  Level Estimated
Sun 03:17:00 PM 39.1754 -76.6683 270° West  Level Estimated

Login

Don't have an account? Register now (free) for customized features, flight alerts, and more!